Time;durP1;ratioP1;P1;durP2;ratioP2;P2;SDS_P1;SDS_P2;PMS_P1;PMS_P2;Temp;Humidity;BMP_temperature;BMP_pressure;BME280_temperature;BME280_humidity;BME280_pressure;Samples;Min_cycle;Max_cycle;Signal;HPM_P1;HPM_P2
2023/10/23 00:01:49;;;;;;;35.47;33.07;;;7.30;93.40;;;;;;5094461;28;20179;-87
2023/10/23 00:04:15;;;;;;;34.00;31.70;;;7.30;93.50;;;;;;5092924;28;20179;-87
2023/10/23 00:06:41;;;;;;;34.20;31.60;;;7.30;93.60;;;;;;5094186;28;20529;-87
2023/10/23 00:09:06;;;;;;;33.90;31.50;;;7.30;93.60;;;;;;5092971;28;20175;-87
2023/10/23 00:11:32;;;;;;;21.00;18.47;;;7.30;93.60;;;;;;5092753;28;20178;-88
2023/10/23 00:13:58;;;;;;;19.83;18.23;;;7.10;93.50;;;;;;5092842;28;20210;-87
2023/10/23 00:16:24;;;;;;;33.77;31.37;;;7.00;93.60;;;;;;5092696;28;20202;-87
2023/10/23 00:18:51;;;;;;;33.17;30.53;;;7.00;93.70;;;;;;5093948;28;20175;-87
2023/10/23 00:21:17;;;;;;;33.70;31.03;;;7.00;93.70;;;;;;5092823;28;20554;-87
2023/10/23 00:23:42;;;;;;;33.00;30.43;;;7.00;93.80;;;;;;5093852;28;20179;-87
2023/10/23 00:26:08;;;;;;;34.03;31.63;;;7.00;93.80;;;;;;5092540;28;20205;-87
2023/10/23 00:28:34;;;;;;;20.83;19.03;;;7.00;93.80;;;;;;5094093;28;20175;-87
2023/10/23 00:31:00;;;;;;;19.63;18.00;;;7.00;93.80;;;;;;5092623;28;20178;-87
2023/10/23 00:33:26;;;;;;;32.70;30.50;;;7.00;93.90;;;;;;5092895;28;20181;-87
2023/10/23 00:35:52;;;;;;;46.17;39.80;;;7.00;93.90;;;;;;5092470;28;20305;-87
2023/10/23 00:38:17;;;;;;;34.90;32.03;;;7.10;93.90;;;;;;5093649;28;20206;-87
2023/10/23 00:40:43;;;;;;;33.80;30.93;;;7.20;94.00;;;;;;5093863;28;20178;-87
2023/10/23 00:43:12;;;;;;;32.80;30.33;;;7.10;94.00;;;;;;5092451;28;20588;-88
2023/10/23 00:45:54;;;;;;;31.00;28.90;;;7.00;94.00;;;;;;5092215;28;20202;-88
2023/10/23 00:48:22;;;;;;;32.03;29.73;;;7.00;94.00;;;;;;5092487;28;20171;-87
2023/10/23 00:50:49;;;;;;;22.23;20.03;;;7.00;94.10;;;;;;5092475;28;20189;-88
2023/10/23 00:53:17;;;;;;;22.23;20.00;;;7.00;94.10;;;;;;5092478;28;20679;-87
2023/10/23 00:55:45;;;;;;;21.30;19.60;;;7.10;94.20;;;;;;5092127;28;20695;-87
2023/10/23 00:58:11;;;;;;;22.63;20.63;;;7.00;94.20;;;;;;5093415;28;20171;-87
2023/10/23 01:00:38;;;;;;;22.20;20.03;;;7.00;94.30;;;;;;5092333;28;20170;-87
2023/10/23 01:03:04;;;;;;;23.10;20.83;;;7.20;94.40;;;;;;5092135;28;20176;-88
2023/10/23 01:05:29;;;;;;;23.50;21.30;;;7.20;94.40;;;;;;5093503;28;20269;-87
2023/10/23 01:07:56;;;;;;;27.53;21.53;;;7.30;94.50;;;;;;5093532;28;20669;-88
2023/10/23 01:10:21;;;;;;;23.53;21.43;;;7.30;94.50;;;;;;5091987;28;20274;-88
2023/10/23 01:12:47;;;;;;;21.53;19.50;;;7.40;94.60;;;;;;5093287;28;20202;-87
2023/10/23 01:15:12;;;;;;;23.73;21.40;;;7.40;94.70;;;;;;5091987;28;20245;-88
2023/10/23 01:17:38;;;;;;;23.10;21.10;;;7.40;94.60;;;;;;5091991;28;20217;-88
2023/10/23 01:20:05;;;;;;;24.10;22.00;;;7.50;94.70;;;;;;5092031;28;20595;-88
2023/10/23 01:22:30;;;;;;;37.70;34.27;;;7.50;94.70;;;;;;5091983;28;20182;-88
2023/10/23 01:24:56;;;;;;;36.73;33.90;;;7.40;94.60;;;;;;5091901;28;20194;-87
2023/10/23 01:27:22;;;;;;;36.60;33.50;;;7.30;94.70;;;;;;5092645;28;20535;-87
2023/10/23 01:29:47;;;;;;;23.33;21.20;;;7.40;94.70;;;;;;5092629;28;20320;-87
2023/10/23 01:32:13;;;;;;;24.87;22.43;;;7.40;94.80;;;;;;5092650;28;20183;-88
2023/10/23 01:34:38;;;;;;;41.33;37.33;;;7.30;94.80;;;;;;5093268;28;20215;-88
2023/10/23 01:37:04;;;;;;;36.97;34.17;;;7.30;94.80;;;;;;5093947;28;20232;-87
2023/10/23 01:39:29;;;;;;;41.53;38.43;;;7.30;94.80;;;;;;5092238;28;20171;-87
2023/10/23 01:41:55;;;;;;;26.33;23.90;;;7.30;94.90;;;;;;5092284;28;20178;-87
2023/10/23 01:44:21;;;;;;;25.37;22.97;;;7.30;94.90;;;;;;5094754;28;20175;-88
2023/10/23 01:46:46;;;;;;;38.57;35.70;;;7.30;94.80;;;;;;5097409;28;20179;-88
2023/10/23 01:49:12;;;;;;;39.23;36.33;;;7.20;94.80;;;;;;5096085;28;20170;-88
2023/10/23 01:51:37;;;;;;;42.90;39.73;;;7.10;94.90;;;;;;5095794;28;20261;-88
2023/10/23 01:54:03;;;;;;;26.97;24.33;;;7.10;94.90;;;;;;5095534;28;20198;-88
2023/10/23 01:56:28;;;;;;;28.77;25.40;;;7.10;94.90;;;;;;5095750;28;20302;-88
2023/10/23 01:58:54;;;;;;;40.30;37.03;;;7.00;94.90;;;;;;5095350;28;20261;-88
2023/10/23 02:01:21;;;;;;;39.80;36.70;;;7.00;94.90;;;;;;5095279;28;20190;-88
2023/10/23 02:03:46;;;;;;;27.67;25.17;;;6.90;94.90;;;;;;5096950;28;20163;-88
2023/10/23 02:06:12;;;;;;;27.67;24.63;;;6.80;94.90;;;;;;5095290;28;20217;-87
2023/10/23 02:08:37;;;;;;;38.23;34.80;;;6.80;94.90;;;;;;5095567;28;20178;-88
2023/10/23 02:11:03;;;;;;;37.07;33.97;;;6.70;94.90;;;;;;5096734;28;20259;-88
2023/10/23 02:13:28;;;;;;;41.57;38.40;;;6.60;94.90;;;;;;5095259;28;20214;-88
2023/10/23 02:15:54;;;;;;;25.53;23.50;;;6.60;94.90;;;;;;5096459;28;20256;-88
2023/10/23 02:18:19;;;;;;;25.90;23.50;;;6.60;94.90;;;;;;5097155;28;20178;-88
2023/10/23 02:20:45;;;;;;;37.63;34.77;;;6.50;94.90;;;;;;5095363;28;20661;-88
2023/10/23 02:23:10;;;;;;;40.07;36.87;;;6.50;94.90;;;;;;5095464;28;20169;-88
2023/10/23 02:25:36;;;;;;;27.23;24.67;;;6.40;94.90;;;;;;5095421;28;20194;-88
2023/10/23 02:28:03;;;;;;;26.57;24.17;;;6.50;95.00;;;;;;5095154;28;20182;-87
2023/10/23 02:30:28;;;;;;;25.43;23.13;;;6.70;95.10;;;;;;5095286;28;20269;-88
2023/10/23 02:32:54;;;;;;;26.57;23.57;;;6.80;95.10;;;;;;5095708;28;20214;-87
2023/10/23 02:35:20;;;;;;;26.87;23.90;;;6.80;95.20;;;;;;5096143;28;20203;-88
2023/10/23 02:37:45;;;;;;;26.30;23.77;;;6.80;95.20;;;;;;5096406;28;20634;-88
2023/10/23 02:40:11;;;;;;;26.60;24.13;;;6.70;95.20;;;;;;5094897;28;20304;-88
2023/10/23 02:42:37;;;;;;;26.03;23.23;;;6.70;95.10;;;;;;5094686;28;20175;-88
2023/10/23 02:45:03;;;;;;;25.30;22.80;;;6.70;95.10;;;;;;5094691;28;20575;-88
2023/10/23 02:47:28;;;;;;;26.77;23.93;;;6.70;95.20;;;;;;5094449;28;20210;-88
2023/10/23 02:49:54;;;;;;;27.03;24.43;;;6.80;95.20;;;;;;5095893;28;20552;-88
2023/10/23 02:52:20;;;;;;;26.50;24.00;;;6.90;95.30;;;;;;5095938;28;20245;-88
2023/10/23 02:54:46;;;;;;;26.77;24.47;;;7.00;95.30;;;;;;5093989;28;20238;-87
2023/10/23 02:57:11;;;;;;;28.37;25.47;;;7.00;95.30;;;;;;5096327;28;20170;-88
2023/10/23 02:59:37;;;;;;;26.63;24.10;;;7.00;95.30;;;;;;5095045;28;20706;-88
2023/10/23 03:02:02;;;;;;;28.90;25.13;;;7.00;95.30;;;;;;5096083;28;20194;-88
2023/10/23 03:04:28;;;;;;;29.77;26.00;;;7.10;95.40;;;;;;5096017;28;20665;-88
2023/10/23 03:06:54;;;;;;;28.43;25.77;;;7.10;95.40;;;;;;5096060;28;20186;-88
2023/10/23 03:09:19;;;;;;;29.27;26.27;;;7.10;95.40;;;;;;5095830;28;20175;-88
2023/10/23 03:11:45;;;;;;;29.60;25.90;;;7.20;95.40;;;;;;5096320;28;20182;-88
2023/10/23 03:14:10;;;;;;;29.80;27.10;;;7.30;95.50;;;;;;5096176;28;20191;-88
2023/10/23 03:16:36;;;;;;;29.80;25.80;;;7.30;95.50;;;;;;5094461;28;20212;-88
2023/10/23 03:19:01;;;;;;;30.80;27.53;;;7.30;95.50;;;;;;5094358;28;20182;-88
2023/10/23 03:21:27;;;;;;;35.03;27.83;;;7.30;95.50;;;;;;5094510;28;20166;-88
2023/10/23 03:23:52;;;;;;;31.87;28.80;;;7.30;95.50;;;;;;5094285;28;20170;-88
2023/10/23 03:26:18;;;;;;;31.00;28.20;;;7.30;95.50;;;;;;5094296;28;20285;-88
2023/10/23 03:28:44;;;;;;;31.40;28.47;;;7.30;95.50;;;;;;5096141;28;20194;-88
2023/10/23 03:31:09;;;;;;;32.17;29.17;;;7.30;95.50;;;;;;5094600;28;20271;-89
2023/10/23 03:33:35;;;;;;;30.70;27.87;;;7.30;95.50;;;;;;5094396;28;20265;-88
2023/10/23 03:36:00;;;;;;;34.17;30.70;;;7.30;95.60;;;;;;5095312;28;20206;-88
2023/10/23 03:38:26;;;;;;;43.50;39.73;;;7.30;95.60;;;;;;5093968;28;20174;-88
2023/10/23 03:40:56;;;;;;;44.47;40.77;;;7.20;95.50;;;;;;5093973;28;20179;-88
2023/10/23 03:43:22;;;;;;;44.73;41.03;;;7.10;95.50;;;;;;5093817;28;20266;-88
2023/10/23 03:45:47;;;;;;;44.97;41.33;;;7.00;95.50;;;;;;5093979;28;20245;-88
2023/10/23 03:48:13;;;;;;;33.33;30.07;;;7.00;95.60;;;;;;5095264;28;20182;-88
2023/10/23 03:50:38;;;;;;;32.20;29.17;;;7.00;95.50;;;;;;5093901;28;20186;-88
2023/10/23 03:53:04;;;;;;;44.03;40.53;;;6.90;95.50;;;;;;5093526;28;20186;-88
2023/10/23 03:55:29;;;;;;;43.87;40.27;;;6.80;95.50;;;;;;5093168;28;20221;-88
2023/10/23 03:57:55;;;;;;;46.60;42.23;;;6.80;95.50;;;;;;5094503;28;20236;-88
2023/10/23 04:00:20;;;;;;;46.37;42.07;;;6.80;95.50;;;;;;5094132;28;20228;-88
2023/10/23 04:02:46;;;;;;;31.37;28.33;;;6.90;95.60;;;;;;5093440;28;20231;-88
2023/10/23 04:05:11;;;;;;;31.70;28.70;;;6.90;95.50;;;;;;5093246;28;20195;-88
2023/10/23 04:07:37;;;;;;;42.43;38.93;;;6.80;95.50;;;;;;5094667;28;20585;-88
2023/10/23 04:10:07;;;;;;;43.27;39.27;;;6.80;95.50;;;;;;5093020;28;20175;-88
2023/10/23 04:12:32;;;;;;;42.90;38.80;;;6.80;95.50;;;;;;5092983;28;20182;-88
2023/10/23 04:14:58;;;;;;;41.27;38.07;;;6.80;95.50;;;;;;5094219;28;20210;-88
2023/10/23 04:17:23;;;;;;;31.20;28.20;;;6.80;95.50;;;;;;5094588;28;20178;-88
2023/10/23 04:19:48;;;;;;;28.87;26.27;;;6.80;95.50;;;;;;5092918;28;20178;-88
2023/10/23 04:22:14;;;;;;;38.37;34.73;;;6.70;95.50;;;;;;5093829;28;20254;-88
2023/10/23 04:24:40;;;;;;;40.47;36.43;;;6.70;95.50;;;;;;5092887;28;20332;-88
2023/10/23 04:27:05;;;;;;;36.27;33.50;;;6.70;95.50;;;;;;5093801;28;20308;-89
2023/10/23 04:29:31;;;;;;;33.77;30.97;;;6.60;95.40;;;;;;5092732;28;20171;-88
2023/10/23 04:31:56;;;;;;;24.53;22.23;;;6.50;95.40;;;;;;5094032;28;20173;-88
2023/10/23 04:34:22;;;;;;;22.67;20.87;;;6.40;95.30;;;;;;5093411;28;20199;-88
2023/10/23 04:36:48;;;;;;;23.93;21.93;;;6.30;95.30;;;;;;5092707;28;20281;-88
2023/10/23 04:39:14;;;;;;;24.50;22.50;;;6.30;95.30;;;;;;5094357;28;20258;-88
2023/10/23 04:41:39;;;;;;;27.93;24.73;;;6.30;95.30;;;;;;5094110;28;20179;-88
2023/10/23 04:44:05;;;;;;;27.70;25.20;;;6.20;95.20;;;;;;5092843;28;20638;-88
2023/10/23 04:46:30;;;;;;;30.10;27.20;;;6.30;95.40;;;;;;5093966;28;20194;-88
2023/10/23 04:48:56;;;;;;;29.33;26.83;;;6.50;95.40;;;;;;5092752;28;20227;-88
2023/10/23 04:51:21;;;;;;;29.20;26.40;;;6.60;95.40;;;;;;5092822;28;20185;-88
2023/10/23 04:53:47;;;;;;;30.00;27.43;;;6.50;95.40;;;;;;5092547;28;20665;-88
2023/10/23 04:56:12;;;;;;;30.07;27.37;;;6.50;95.30;;;;;;5092571;28;20229;-88
2023/10/23 04:58:38;;;;;;;31.03;28.10;;;6.30;95.30;;;;;;5092774;28;20187;-89
2023/10/23 05:01:03;;;;;;;29.93;27.13;;;6.40;95.40;;;;;;5094038;28;20263;-88
2023/10/23 05:03:30;;;;;;;28.13;25.83;;;6.60;95.50;;;;;;5092603;28;20170;-88
2023/10/23 05:05:55;;;;;;;30.13;27.23;;;6.60;95.50;;;;;;5092634;28;20278;-89
2023/10/23 05:08:21;;;;;;;40.77;37.10;;;6.50;95.50;;;;;;5092440;28;20206;-89
2023/10/23 05:10:46;;;;;;;39.70;36.13;;;6.60;95.50;;;;;;5093115;28;20227;-88
2023/10/23 05:13:12;;;;;;;40.33;37.13;;;6.60;95.50;;;;;;5092599;28;20620;-88
2023/10/23 05:15:37;;;;;;;39.60;36.30;;;6.60;95.60;;;;;;5093840;28;20220;-88
2023/10/23 05:18:03;;;;;;;32.43;28.93;;;6.60;95.50;;;;;;5093327;28;20269;-89
2023/10/23 05:20:28;;;;;;;31.67;28.87;;;6.70;95.60;;;;;;5097030;28;20185;-88
2023/10/23 05:22:54;;;;;;;42.90;39.20;;;6.70;95.60;;;;;;5096882;28;20192;-88
2023/10/23 05:25:19;;;;;;;41.73;38.27;;;6.70;95.60;;;;;;5097974;28;20198;-88
2023/10/23 05:27:45;;;;;;;40.30;36.80;;;6.60;95.60;;;;;;5096189;28;20193;-88
2023/10/23 05:30:10;;;;;;;41.33;37.43;;;6.60;95.60;;;;;;5097874;28;20182;-88
2023/10/23 05:32:36;;;;;;;31.57;28.30;;;6.50;95.50;;;;;;5097262;28;20687;-88
2023/10/23 05:35:03;;;;;;;28.67;25.93;;;6.50;95.50;;;;;;5095867;28;20210;-89
2023/10/23 05:37:29;;;;;;;40.93;37.03;;;6.50;95.50;;;;;;5095846;28;20250;-88
2023/10/23 05:39:55;;;;;;;39.40;36.00;;;6.50;95.60;;;;;;5096022;28;20175;-89
2023/10/23 05:42:20;;;;;;;40.30;36.90;;;6.50;95.60;;;;;;5095982;28;20228;-88
2023/10/23 05:44:46;;;;;;;28.93;26.37;;;6.50;95.60;;;;;;5095848;28;20247;-88
2023/10/23 05:47:11;;;;;;;29.20;26.63;;;6.40;95.50;;;;;;5096409;28;20170;-88
2023/10/23 05:49:37;;;;;;;28.77;26.03;;;6.40;95.40;;;;;;5097695;28;20658;-88
2023/10/23 05:52:03;;;;;;;41.03;37.50;;;6.30;95.40;;;;;;5095760;28;20567;-88
2023/10/23 05:54:30;;;;;;;38.77;35.97;;;6.20;95.40;;;;;;5095654;28;20233;-88
2023/10/23 05:56:56;;;;;;;39.53;36.53;;;6.30;95.50;;;;;;5096912;28;20217;-88
2023/10/23 05:59:21;;;;;;;29.47;26.97;;;6.20;95.40;;;;;;5097252;28;20175;-88
2023/10/23 06:01:47;;;;;;;28.63;26.03;;;6.20;95.40;;;;;;5095746;28;20257;-88
2023/10/23 06:04:12;;;;;;;29.47;26.47;;;6.20;95.50;;;;;;5096837;28;20186;-88
2023/10/23 06:06:38;;;;;;;39.63;36.20;;;6.30;95.50;;;;;;5095917;28;20189;-88
2023/10/23 06:09:04;;;;;;;39.57;36.07;;;6.40;95.50;;;;;;5095820;28;20673;-88
2023/10/23 06:11:29;;;;;;;38.53;35.03;;;6.40;95.60;;;;;;5097002;28;20178;-88
2023/10/23 06:13:56;;;;;;;33.07;30.03;;;6.40;95.50;;;;;;5096560;28;20171;-89
2023/10/23 06:16:21;;;;;;;33.40;30.17;;;6.40;95.50;;;;;;5095319;28;20197;-88
2023/10/23 06:18:47;;;;;;;42.13;38.50;;;6.40;95.50;;;;;;5095296;28;20175;-88
2023/10/23 06:21:12;;;;;;;42.83;39.13;;;6.30;95.60;;;;;;5095518;28;20216;-88
2023/10/23 06:23:39;;;;;;;36.40;33.00;;;6.40;95.60;;;;;;5096871;28;20221;-88
2023/10/23 06:26:08;;;;;;;35.10;31.67;;;6.30;95.60;;;;;;5095575;28;20208;-88
2023/10/23 06:28:34;;;;;;;34.50;31.27;;;6.30;95.60;;;;;;5095285;28;20182;-88
2023/10/23 06:31:10;;;;;;;45.17;40.90;;;6.30;95.60;;;;;;5093959;28;20171;-88
2023/10/23 06:33:42;;;;;;;44.70;40.90;;;6.30;95.60;;;;;;5095441;28;20553;-88
2023/10/23 06:36:09;;;;;;;35.83;32.47;;;6.30;95.70;;;;;;5096151;28;20202;-88
2023/10/23 06:38:35;;;;;;;35.43;31.60;;;6.40;95.70;;;;;;5096426;28;20250;-88
2023/10/23 06:41:04;;;;;;;45.90;41.33;;;6.50;95.70;;;;;;5095384;28;20257;-88
2023/10/23 06:43:31;;;;;;;45.67;41.67;;;6.50;95.70;;;;;;5095045;28;20649;-88
2023/10/23 06:45:56;;;;;;;46.77;41.97;;;6.60;95.80;;;;;;5096207;28;20194;-88
2023/10/23 06:48:22;;;;;;;55.63;50.93;;;6.50;95.70;;;;;;5095013;28;20223;-88
2023/10/23 06:50:47;;;;;;;54.73;49.87;;;6.50;95.70;;;;;;5094894;28;20174;-89
2023/10/23 06:53:14;;;;;;;56.03;50.87;;;6.60;95.80;;;;;;5094816;28;20182;-88
2023/10/23 06:55:50;;;;;;;58.87;53.60;;;6.50;95.70;;;;;;5094236;28;20221;-88
2023/10/23 06:58:16;;;;;;;58.73;53.73;;;6.50;95.70;;;;;;5095647;28;20185;-89
2023/10/23 07:00:41;;;;;;;59.10;54.27;;;6.60;95.80;;;;;;5095525;28;20654;-88
2023/10/23 07:03:07;;;;;;;56.10;51.40;;;6.70;95.80;;;;;;5095500;28;20163;-89
2023/10/23 07:05:33;;;;;;;56.23;51.83;;;6.70;95.70;;;;;;5095491;28;20641;-88
2023/10/23 07:07:58;;;;;;;56.87;51.77;;;6.70;95.70;;;;;;5095171;28;20175;-88
2023/10/23 07:10:23;;;;;;;60.10;55.20;;;6.70;95.70;;;;;;5096395;28;20175;-89
2023/10/23 07:12:49;;;;;;;59.23;54.50;;;6.70;95.70;;;;;;5097230;28;20171;-88
2023/10/23 07:15:14;;;;;;;60.10;55.60;;;6.70;95.70;;;;;;5094979;28;20215;-88
2023/10/23 07:17:40;;;;;;;59.03;54.63;;;6.60;95.70;;;;;;5094719;28;20206;-88
2023/10/23 07:20:06;;;;;;;59.80;54.77;;;6.60;95.70;;;;;;5094403;28;20174;-88
2023/10/23 07:22:33;;;;;;;62.23;57.13;;;6.60;95.70;;;;;;5094124;28;20232;-88
2023/10/23 07:24:59;;;;;;;59.97;55.33;;;6.70;95.80;;;;;;5094123;28;20218;-88
2023/10/23 07:27:25;;;;;;;63.87;58.93;;;6.70;95.80;;;;;;5094460;28;20176;-88
2023/10/23 07:29:51;;;;;;;64.17;59.30;;;6.70;95.70;;;;;;5095262;28;20167;-88
2023/10/23 07:32:17;;;;;;;65.53;60.03;;;6.80;95.80;;;;;;5095213;28;20568;-89
2023/10/23 07:34:43;;;;;;;64.73;59.13;;;6.90;95.80;;;;;;5093992;28;20213;-88
2023/10/23 07:37:08;;;;;;;64.13;58.80;;;6.90;95.80;;;;;;5093912;28;20231;-88
2023/10/23 07:39:34;;;;;;;62.13;57.07;;;7.10;95.90;;;;;;5094160;28;20166;-89
2023/10/23 07:41:59;;;;;;;62.53;57.67;;;7.30;96.00;;;;;;5093887;28;20642;-89
2023/10/23 07:44:26;;;;;;;62.77;57.30;;;7.70;96.10;;;;;;5095677;28;20274;-88
2023/10/23 07:46:52;;;;;;;81.53;75.13;;;7.80;96.00;;;;;;5094716;28;20182;-88
2023/10/23 07:49:17;;;;;;;80.87;74.30;;;7.90;96.00;;;;;;5094364;28;20186;-88
2023/10/23 07:51:44;;;;;;;79.47;73.13;;;8.00;96.00;;;;;;5094528;28;20214;-89
2023/10/23 07:54:10;;;;;;;81.20;74.67;;;8.00;95.90;;;;;;5094159;28;20253;-89
2023/10/23 07:56:35;;;;;;;80.33;73.67;;;8.10;95.90;;;;;;5094042;28;20218;-88
2023/10/23 07:59:01;;;;;;;81.93;75.03;;;8.20;95.90;;;;;;5095635;28;20204;-88
2023/10/23 08:01:26;;;;;;;78.23;71.70;;;8.30;95.90;;;;;;5094223;28;20182;-88
2023/10/23 08:03:52;;;;;;;77.17;71.27;;;8.30;95.80;;;;;;5093891;28;20265;-89
2023/10/23 08:06:17;;;;;;;78.23;72.13;;;8.50;95.80;;;;;;5093473;28;20205;-88
2023/10/23 08:08:44;;;;;;;74.57;68.40;;;8.60;95.70;;;;;;5094286;28;20177;-89
2023/10/23 08:11:12;;;;;;;79.93;73.40;;;8.70;95.70;;;;;;5092951;28;20666;-88
2023/10/23 08:13:38;;;;;;;78.10;72.23;;;8.80;95.60;;;;;;5092892;28;20554;-89
2023/10/23 08:16:04;;;;;;;79.20;72.87;;;8.90;95.50;;;;;;5094527;28;20213;-88
2023/10/23 08:18:30;;;;;;;78.83;72.00;;;8.90;95.30;;;;;;5094346;28;20205;-89
2023/10/23 08:20:55;;;;;;;84.87;78.40;;;9.00;95.30;;;;;;5093380;28;20257;-88
2023/10/23 08:23:21;;;;;;;62.33;56.93;;;9.00;95.20;;;;;;5093042;28;20183;-89
2023/10/23 08:25:47;;;;;;;62.03;56.23;;;9.00;95.00;;;;;;5094528;28;20665;-88
2023/10/23 08:28:12;;;;;;;61.90;56.67;;;9.10;94.90;;;;;;5092935;28;20182;-89
2023/10/23 08:30:38;;;;;;;85.97;79.23;;;9.20;94.70;;;;;;5093257;28;20546;-88
2023/10/23 08:33:05;;;;;;;61.53;56.63;;;9.30;94.60;;;;;;5093050;28;20182;-89
2023/10/23 08:35:31;;;;;;;62.07;56.83;;;9.30;94.30;;;;;;5092831;28;20210;-89
2023/10/23 08:37:56;;;;;;;64.77;59.50;;;9.40;94.10;;;;;;5092604;28;20171;-89
2023/10/23 08:40:22;;;;;;;89.10;82.07;;;9.40;93.90;;;;;;5093977;28;20203;-88
2023/10/23 08:42:48;;;;;;;92.53;85.60;;;9.50;93.80;;;;;;5093839;28;20197;-88
2023/10/23 08:45:17;;;;;;;62.23;57.40;;;9.50;93.70;;;;;;5094383;28;20190;-89
2023/10/23 08:47:43;;;;;;;65.53;60.27;;;9.70;93.70;;;;;;5093781;28;20174;-88
2023/10/23 08:50:12;;;;;;;70.50;64.73;;;9.80;93.50;;;;;;5093840;28;20236;-89
2023/10/23 08:52:49;;;;;;;92.20;85.60;;;9.80;93.40;;;;;;5093511;28;20183;-89
2023/10/23 08:55:14;;;;;;;88.00;81.67;;;10.00;93.20;;;;;;5092800;28;20267;-88
2023/10/23 08:57:53;;;;;;;62.63;57.87;;;10.00;92.80;;;;;;5094318;28;20154;-88
2023/10/23 09:00:23;;;;;;;62.03;57.10;;;10.20;92.60;;;;;;5093022;28;20170;-88
2023/10/23 09:02:49;;;;;;;89.43;83.03;;;10.30;92.30;;;;;;5093871;28;20170;-88
2023/10/23 09:05:15;;;;;;;88.07;81.87;;;10.30;92.00;;;;;;5092375;28;20190;-89
2023/10/23 09:07:41;;;;;;;89.43;83.20;;;10.40;91.90;;;;;;5093629;28;20660;-89
2023/10/23 09:10:06;;;;;;;56.80;52.13;;;10.50;91.80;;;;;;5093703;28;20227;-89
2023/10/23 09:12:34;;;;;;;58.67;53.93;;;10.50;91.50;;;;;;5092135;28;20269;-89
2023/10/23 09:15:24;;;;;;;84.20;78.27;;;10.70;91.50;;;;;;5092268;28;20697;-90
2023/10/23 09:17:51;;;;;;;82.93;77.10;;;10.70;91.30;;;;;;5092197;28;20254;-91
2023/10/23 09:20:16;;;;;;;86.87;80.97;;;10.70;90.80;;;;;;5092204;28;20212;-90
2023/10/23 09:22:47;;;;;;;53.27;49.03;;;10.80;90.40;;;;;;5093739;28;20182;-88
2023/10/23 09:25:14;;;;;;;53.20;49.10;;;10.90;90.30;;;;;;5093259;28;20730;-88
2023/10/23 09:27:40;;;;;;;53.47;48.83;;;11.00;89.90;;;;;;5093803;28;20254;-88
2023/10/23 09:30:07;;;;;;;49.83;45.47;;;11.10;89.60;;;;;;5091928;28;20259;-89
2023/10/23 09:32:32;;;;;;;52.17;48.20;;;11.20;89.60;;;;;;5091969;28;20183;-90
2023/10/23 09:34:59;;;;;;;49.80;46.00;;;11.20;89.20;;;;;;5092266;28;20221;-89
2023/10/23 09:37:24;;;;;;;47.93;44.03;;;11.30;89.30;;;;;;5095619;28;20241;-90
2023/10/23 09:39:50;;;;;;;52.93;48.83;;;11.40;89.00;;;;;;5092008;28;20167;-89
2023/10/23 09:42:18;;;;;;;53.77;49.60;;;11.50;88.90;;;;;;5091801;28;20202;-89
2023/10/23 09:44:45;;;;;;;52.00;47.57;;;11.40;88.50;;;;;;5092845;28;20657;-88
2023/10/23 09:47:11;;;;;;;48.97;45.07;;;11.50;87.80;;;;;;5091695;28;20185;-88
2023/10/23 09:49:39;;;;;;;47.23;43.23;;;11.60;87.70;;;;;;5091819;28;20219;-89
2023/10/23 09:52:07;;;;;;;45.23;41.47;;;11.70;87.90;;;;;;5091648;28;20175;-89
2023/10/23 09:54:35;;;;;;;46.10;42.40;;;11.90;87.90;;;;;;5091665;28;20210;-91
2023/10/23 09:57:05;;;;;;;48.27;44.03;;;11.80;87.30;;;;;;5092996;28;20265;-89
2023/10/23 09:59:39;;;;;;;47.60;43.83;;;11.80;87.40;;;;;;5092024;28;20213;-89
2023/10/23 10:02:06;;;;;;;50.67;46.33;;;11.90;87.20;;;;;;5091742;28;20182;-88
2023/10/23 10:04:52;;;;;;;48.27;44.37;;;11.90;87.10;;;;;;5092564;28;20181;-89
2023/10/23 10:07:26;;;;;;;48.57;44.47;;;12.10;87.40;;;;;;5096164;28;20174;-89
2023/10/23 10:09:53;;;;;;;46.57;42.87;;;12.10;87.00;;;;;;5095414;28;20174;-89
2023/10/23 10:12:19;;;;;;;44.77;41.13;;;12.00;86.40;;;;;;5095088;28;20646;-88
2023/10/23 10:14:46;;;;;;;69.27;64.37;;;12.00;86.20;;;;;;5095006;28;20601;-89
2023/10/23 10:17:14;;;;;;;67.90;62.47;;;12.10;86.80;;;;;;5095177;28;20206;-89
2023/10/23 10:19:41;;;;;;;69.40;64.17;;;12.20;86.20;;;;;;5096225;28;20171;-89
2023/10/23 10:22:27;;;;;;;72.70;67.03;;;12.20;85.70;;;;;;5095959;28;20273;-89
2023/10/23 10:24:54;;;;;;;67.83;62.93;;;12.20;85.90;;;;;;5094876;28;20202;-88
2023/10/23 10:27:20;;;;;;;71.90;66.23;;;12.10;86.00;;;;;;5095073;28;20263;-91
2023/10/23 10:29:46;;;;;;;70.57;65.47;;;12.00;85.80;;;;;;5095248;28;20179;-89
2023/10/23 10:32:12;;;;;;;69.30;64.07;;;12.00;86.20;;;;;;5101023;28;20280;-92
2023/10/23 10:37:14;;;;;;;65.63;60.67;;;12.00;86.40;;;;;;5088461;28;20219;-92
2023/10/23 10:39:52;;;;;;;67.43;62.33;;;12.00;86.40;;;;;;5091839;28;20194;-93
2023/10/23 10:42:28;;;;;;;69.17;64.10;;;12.10;86.80;;;;;;5089471;28;20178;-93
2023/10/23 10:45:02;;;;;;;74.37;69.00;;;12.10;87.10;;;;;;5093083;28;20180;-94
2023/10/23 10:47:40;;;;;;;45.47;41.97;;;12.10;87.10;;;;;;5096045;28;20167;-93
2023/10/23 10:50:07;;;;;;;43.07;39.30;;;12.00;86.70;;;;;;5094476;28;20218;-93
2023/10/23 10:52:37;;;;;;;44.10;40.77;;;12.10;86.60;;;;;;5095304;28;20186;-92
2023/10/23 10:55:08;;;;;;;64.87;59.77;;;12.10;86.40;;;;;;5096957;28;20219;-93
2023/10/23 10:57:35;;;;;;;68.17;63.17;;;12.20;86.50;;;;;;5095779;28;20172;-93
2023/10/23 11:00:01;;;;;;;42.87;39.43;;;12.30;86.30;;;;;;5097973;28;20187;-93
2023/10/23 11:02:27;;;;;;;43.53;39.67;;;12.30;86.40;;;;;;5098424;28;20246;-94
2023/10/23 11:04:53;;;;;;;64.20;59.37;;;12.40;86.60;;;;;;5098039;28;20213;-94
2023/10/23 11:07:23;;;;;;;60.67;56.07;;;12.40;86.10;;;;;;5094914;28;20186;-93
2023/10/23 11:09:49;;;;;;;65.43;60.77;;;12.40;84.70;;;;;;5089401;28;20167;-92
2023/10/23 11:12:26;;;;;;;38.17;34.70;;;12.60;85.00;;;;;;5084434;28;20187;-92
2023/10/23 11:14:51;;;;;;;40.20;36.80;;;12.60;84.20;;;;;;5095182;28;20226;-93
2023/10/23 11:17:17;;;;;;;37.73;34.77;;;12.60;84.30;;;;;;5093582;28;20176;-92
2023/10/23 11:19:43;;;;;;;38.90;35.47;;;12.60;83.90;;;;;;5094154;28;20182;-93
2023/10/23 11:22:13;;;;;;;37.77;34.70;;;12.90;84.20;;;;;;5085278;28;20194;-93
2023/10/23 11:24:39;;;;;;;36.27;33.37;;;13.20;84.10;;;;;;5084507;28;20229;-89
2023/10/23 11:27:06;;;;;;;34.23;31.40;;;13.20;83.70;;;;;;5075107;28;20183;-88
2023/10/23 11:29:41;;;;;;;35.03;31.63;;;13.20;82.90;;;;;;5075513;28;20171;-88
2023/10/23 11:32:07;;;;;;;34.67;31.70;;;13.10;82.40;;;;;;5074259;28;20185;-88
2023/10/23 11:34:36;;;;;;;35.10;32.23;;;13.00;82.30;;;;;;5073947;28;20207;-89
2023/10/23 11:37:03;;;;;;;34.20;31.30;;;13.00;82.40;;;;;;5074323;28;20283;-89
2023/10/23 11:39:29;;;;;;;34.83;31.63;;;13.00;82.10;;;;;;5074623;28;20178;-89
2023/10/23 11:41:56;;;;;;;33.70;31.00;;;13.10;82.60;;;;;;5075475;28;20179;-88
2023/10/23 11:44:23;;;;;;;33.50;30.67;;;13.10;81.60;;;;;;5075605;28;20172;-88
2023/10/23 11:46:48;;;;;;;34.63;31.33;;;13.10;82.40;;;;;;5074290;28;20274;-89
2023/10/23 11:49:19;;;;;;;34.00;30.90;;;13.20;82.80;;;;;;5074085;28;20260;-89
2023/10/23 11:51:45;;;;;;;33.40;30.53;;;13.30;82.20;;;;;;5074332;28;20175;-90
2023/10/23 11:54:11;;;;;;;32.37;29.37;;;13.50;81.90;;;;;;5073898;28;20207;-88
2023/10/23 11:56:36;;;;;;;33.90;30.90;;;14.00;82.20;;;;;;5073793;28;20234;-88
2023/10/23 11:59:03;;;;;;;44.40;41.03;;;14.00;80.50;;;;;;5074095;28;20176;-89
2023/10/23 12:01:32;;;;;;;44.67;41.27;;;14.30;80.90;;;;;;5075846;28;20542;-89
2023/10/23 12:03:58;;;;;;;45.73;41.80;;;14.50;80.60;;;;;;5074192;28;20270;-88
2023/10/23 12:06:23;;;;;;;45.67;42.17;;;14.30;79.10;;;;;;5073861;28;20282;-89
2023/10/23 12:08:49;;;;;;;42.73;39.40;;;14.40;78.80;;;;;;5073776;28;20180;-89
2023/10/23 12:11:15;;;;;;;43.85;40.55;;;14.30;78.00;;;;;;5073710;28;20182;-90
2023/10/23 12:13:41;;;;;;;43.42;39.80;;;14.50;78.80;;;;;;5075004;28;20171;-89
2023/10/23 12:16:09;;;;;;;44.10;40.40;;;14.70;78.50;;;;;;5073853;28;20211;-89
2023/10/23 12:18:35;;;;;;;44.35;40.78;;;14.80;78.30;;;;;;5073853;28;20237;-89
2023/10/23 12:21:01;;;;;;;46.58;42.88;;;15.20;77.70;;;;;;5073253;28;20175;-89
2023/10/23 12:23:26;;;;;;;51.63;47.83;;;15.10;76.70;;;;;;5072820;28;20167;-89
2023/10/23 12:25:52;;;;;;;51.25;47.08;;;15.10;75.90;;;;;;5072775;28;20226;-89
2023/10/23 12:28:18;;;;;;;31.20;28.35;;;14.60;76.80;;;;;;5072135;28;20271;-89
2023/10/23 12:30:43;;;;;;;32.03;29.33;;;14.80;78.20;;;;;;5072914;28;20183;-90
2023/10/23 12:33:09;;;;;;;49.47;45.65;;;15.20;77.10;;;;;;5072481;28;20233;-88